Shaftsburg, Michigan
Current Conditions -  °F | °C
As of 12:53 PM on Wednesday 28 Jan 2015 (Local Time) from KLAN Reporting Station
Clear Clear  
Wind Chill: 20°   Ceiling: Unl
Heat Index: 29°   Visibility: 10mi
Dew Point: 10°   Wind: 10mph
Humidity: 45%   Direction: 150°SSE
Pressure: 30.28"   Gusts: NA
Location:  42.8°N, 84.29°W
Report Text: KLAN 281753Z 15009KT 10SM CLR M02/M12 A3028 RMK AO2 SLP269 I6000 T10171122 11017 21117 58011
Loading
Personal Weather Stations






























Interactive Weather Map New forecast layout! Learn more

10-Day Weather Forecast

Advertisements
Track Severe Weather on mobile